createdAt,value
2022-09-12T00:00:45.303Z,24.05
2022-09-12T00:03:12.398Z,24.01
2022-09-12T00:05:43.799Z,24.00
2022-09-12T00:08:10.969Z,24.00
2022-09-12T00:10:39.697Z,23.99
2022-09-12T00:13:07.103Z,24.00
2022-09-12T00:15:44.674Z,23.99
2022-09-12T00:18:15.499Z,24.02
2022-09-12T00:20:43.262Z,24.00
2022-09-12T00:23:10.383Z,23.99
2022-09-12T00:25:47.061Z,23.98
2022-09-12T00:28:14.904Z,23.99
2022-09-12T00:30:42.540Z,23.97
2022-09-12T00:33:10.045Z,23.97
2022-09-12T00:35:47.109Z,23.97
2022-09-12T00:38:14.359Z,23.97
2022-09-12T00:40:41.657Z,23.97
2022-09-12T00:43:27.617Z,23.97
2022-09-12T00:45:54.724Z,23.97
2022-09-12T00:48:22.627Z,23.96
2022-09-12T00:50:49.815Z,23.96
2022-09-12T00:53:16.913Z,23.96
2022-09-12T00:55:44.436Z,23.95
2022-09-12T00:58:22.602Z,23.96
2022-09-12T01:00:49.958Z,23.95
2022-09-12T01:03:18.759Z,23.95
2022-09-12T01:06:09.191Z,23.95
2022-09-12T01:08:37.449Z,23.95
2022-09-12T01:11:05.386Z,23.97
2022-09-12T01:13:33.899Z,23.96
2022-09-12T01:16:02.791Z,23.99
2022-09-12T01:18:40.395Z,23.99
2022-09-12T01:21:30.444Z,23.98
2022-09-12T01:24:03.566Z,23.98
2022-09-12T01:26:49.164Z,23.96
2022-09-12T01:29:25.539Z,23.95
2022-09-12T01:31:59.805Z,23.92
2022-09-12T01:34:30.524Z,23.92
2022-09-12T01:36:59.908Z,23.93
2022-09-12T01:39:51.163Z,23.93
2022-09-12T01:42:21.076Z,23.92
2022-09-12T01:44:54.933Z,23.96
2022-09-12T01:47:29.780Z,23.94
2022-09-12T01:50:08.971Z,23.94
2022-09-12T01:52:53.818Z,23.93
2022-09-12T01:55:21.061Z,23.92
2022-09-12T01:58:06.743Z,23.91
2022-09-12T02:00:34.723Z,23.91
2022-09-12T02:03:03.222Z,23.92
2022-09-12T02:05:30.295Z,23.92
2022-09-12T02:07:59.871Z,23.93
2022-09-12T02:10:32.511Z,23.96
2022-09-12T02:13:13.391Z,23.95
2022-09-12T02:15:42.008Z,23.95
2022-09-12T02:18:12.969Z,23.94
2022-09-12T02:20:48.857Z,23.94
2022-09-12T02:23:17.575Z,23.92
2022-09-12T02:25:44.916Z,23.93
2022-09-12T02:28:33.081Z,23.93
2022-09-12T02:31:03.082Z,23.93
2022-09-12T02:33:32.533Z,23.93
2022-09-12T02:36:04.084Z,23.96
2022-09-12T02:38:33.460Z,23.98
2022-09-12T02:41:00.580Z,23.95
2022-09-12T02:43:27.725Z,23.96
2022-09-12T02:45:54.916Z,23.95
2022-09-12T02:48:23.719Z,23.93
2022-09-12T02:50:50.781Z,23.92
2022-09-12T02:53:18.006Z,23.91
2022-09-12T02:55:45.143Z,23.89
2022-09-12T02:58:13.186Z,23.90
2022-09-12T03:01:03.650Z,23.90
2022-09-12T03:03:50.515Z,23.89
2022-09-12T03:06:24.933Z,23.87
2022-09-12T03:09:04.747Z,23.87
2022-09-12T03:11:53.887Z,23.87
2022-09-12T03:14:24.003Z,23.87
2022-09-12T03:16:51.831Z,23.90
2022-09-12T03:19:30.917Z,23.89
2022-09-12T03:22:02.020Z,23.89
2022-09-12T03:24:33.186Z,23.89
2022-09-12T03:27:20.017Z,23.91
2022-09-12T03:29:47.946Z,23.91
2022-09-12T03:32:15.080Z,23.91
2022-09-12T03:34:42.204Z,23.90
2022-09-12T03:37:09.294Z,23.90
2022-09-12T03:39:36.419Z,23.89
2022-09-12T03:42:03.585Z,23.88
2022-09-12T03:44:30.732Z,23.86
2022-09-12T03:46:58.534Z,23.86
2022-09-12T03:49:25.626Z,23.87
2022-09-12T03:51:52.742Z,23.86
2022-09-12T03:54:19.859Z,23.86
2022-09-12T03:56:46.989Z,23.86
2022-09-12T03:59:14.144Z,23.85
2022-09-12T04:01:42.303Z,23.85
2022-09-12T04:04:09.942Z,23.85
2022-09-12T04:06:37.068Z,23.86
2022-09-12T04:09:04.204Z,23.86
2022-09-12T04:11:32.303Z,23.86
2022-09-12T04:14:02.454Z,23.86
2022-09-12T04:16:29.638Z,23.86
2022-09-12T04:18:56.791Z,23.86
2022-09-12T04:21:23.990Z,23.86
2022-09-12T04:23:51.131Z,23.87
2022-09-12T04:26:18.484Z,23.91
2022-09-12T04:28:46.456Z,23.89
2022-09-12T04:31:18.028Z,23.89
2022-09-12T04:33:45.278Z,23.89
2022-09-12T04:36:16.687Z,23.87
2022-09-12T04:38:44.354Z,23.86
2022-09-12T04:41:11.575Z,23.86
2022-09-12T04:43:38.727Z,23.84
2022-09-12T04:46:11.405Z,23.84
2022-09-12T04:48:38.726Z,23.82
2022-09-12T04:51:10.424Z,23.83
2022-09-12T04:53:39.077Z,23.83
2022-09-12T04:56:07.056Z,23.85
2022-09-12T04:58:34.247Z,23.84
2022-09-12T05:01:13.882Z,23.84
2022-09-12T05:03:43.331Z,23.84
2022-09-12T05:06:11.468Z,23.85
2022-09-12T05:08:38.570Z,23.86
2022-09-12T05:11:06.983Z,23.86
2022-09-12T05:13:34.169Z,23.86
2022-09-12T05:16:01.688Z,23.85
2022-09-12T05:18:28.828Z,23.87
2022-09-12T05:20:55.943Z,23.85
2022-09-12T05:23:23.950Z,23.85
2022-09-12T05:25:52.464Z,23.86
2022-09-12T05:28:19.596Z,23.87
2022-09-12T05:30:46.924Z,23.85
2022-09-12T05:33:14.602Z,23.85
2022-09-12T05:35:41.748Z,23.86
2022-09-12T05:38:08.900Z,23.85
2022-09-12T05:40:36.034Z,23.87
2022-09-12T05:43:03.540Z,23.87
2022-09-12T05:45:30.753Z,23.90
2022-09-12T05:47:57.996Z,23.89
2022-09-12T05:50:25.660Z,23.89
2022-09-12T05:52:52.747Z,23.90
2022-09-12T05:55:19.860Z,23.93
2022-09-12T05:57:46.956Z,23.94
2022-09-12T06:00:14.962Z,23.94
2022-09-12T06:02:42.720Z,23.94
2022-09-12T06:05:09.854Z,23.96
2022-09-12T06:07:37.030Z,23.94
2022-09-12T06:10:05.374Z,23.95
2022-09-12T06:12:32.567Z,23.96
2022-09-12T06:14:59.691Z,23.99
2022-09-12T06:17:26.854Z,24.01
2022-09-12T06:19:54.107Z,24.01
2022-09-12T06:22:21.202Z,23.99
2022-09-12T06:24:48.298Z,24.02
2022-09-12T06:27:15.408Z,24.00
2022-09-12T06:29:42.542Z,24.01
2022-09-12T06:32:10.523Z,24.02
2022-09-12T06:34:37.719Z,23.99
2022-09-12T06:37:04.818Z,24.02
2022-09-12T06:39:32.589Z,24.02
2022-09-12T06:41:59.694Z,24.04
2022-09-12T06:44:34.271Z,24.03
2022-09-12T06:47:01.407Z,24.05
2022-09-12T06:49:29.013Z,24.04
2022-09-12T06:51:56.129Z,24.05
2022-09-12T06:54:23.548Z,24.05
2022-09-12T06:56:50.653Z,24.06
2022-09-12T06:59:18.313Z,24.07
2022-09-12T07:01:45.614Z,24.08
2022-09-12T07:04:13.386Z,24.10
2022-09-12T07:06:41.140Z,24.09
2022-09-12T07:09:09.833Z,24.09
2022-09-12T07:11:38.064Z,24.09
2022-09-12T07:14:05.680Z,24.09
2022-09-12T07:16:32.832Z,24.10
2022-09-12T07:19:00.686Z,24.11
2022-09-12T07:21:27.923Z,24.11
2022-09-12T07:23:58.190Z,24.12
2022-09-12T07:26:26.252Z,24.12
2022-09-12T07:29:08.224Z,24.11
2022-09-12T07:31:44.069Z,24.13
2022-09-12T07:34:11.234Z,24.12
2022-09-12T07:36:39.489Z,24.13
2022-09-12T07:39:06.705Z,24.13
2022-09-12T07:41:34.014Z,24.13
2022-09-12T07:44:01.897Z,24.13
2022-09-12T07:46:29.672Z,24.13
2022-09-12T07:48:57.219Z,24.14
2022-09-12T07:51:24.555Z,24.14
2022-09-12T07:53:51.881Z,24.15
2022-09-12T07:56:19.843Z,24.16
2022-09-12T07:58:47.922Z,24.17
2022-09-12T08:01:19.082Z,24.18
2022-09-12T08:03:49.623Z,24.18
2022-09-12T08:06:20.259Z,24.18
2022-09-12T08:08:47.824Z,24.19
2022-09-12T08:11:15.634Z,24.19
2022-09-12T08:13:42.924Z,24.21
2022-09-12T08:16:13.905Z,24.19
2022-09-12T08:18:41.134Z,24.21
2022-09-12T08:21:10.311Z,24.20
2022-09-12T08:23:37.523Z,24.21
2022-09-12T08:26:06.398Z,24.19
2022-09-12T08:28:34.284Z,24.21
2022-09-12T08:31:05.221Z,24.22
2022-09-12T08:33:33.593Z,24.22
2022-09-12T08:36:08.008Z,24.22
2022-09-12T08:38:38.136Z,24.22
2022-09-12T08:41:10.409Z,24.22
2022-09-12T08:43:40.617Z,24.21
2022-09-12T08:46:08.947Z,24.21
2022-09-12T08:48:36.030Z,24.21
2022-09-12T08:51:05.097Z,24.19
2022-09-12T08:53:34.565Z,24.19
2022-09-12T08:56:01.996Z,24.20
2022-09-12T08:58:29.172Z,24.20
2022-09-12T09:01:10.112Z,24.21
2022-09-12T09:03:40.340Z,24.21
2022-09-12T09:06:10.234Z,24.20
2022-09-12T09:08:40.075Z,24.21
2022-09-12T09:11:09.961Z,24.20
2022-09-12T09:14:01.874Z,24.21
2022-09-12T09:16:38.606Z,24.20
2022-09-12T09:19:06.664Z,24.20
2022-09-12T09:21:41.427Z,24.19
2022-09-12T09:24:12.074Z,24.21
2022-09-12T09:26:54.308Z,24.19
2022-09-12T09:29:22.815Z,24.19
2022-09-12T09:31:52.123Z,24.21
2022-09-12T09:34:20.395Z,24.21
2022-09-12T09:36:57.657Z,24.21
2022-09-12T09:39:31.169Z,24.21
2022-09-12T09:42:07.394Z,24.21
2022-09-12T09:44:36.504Z,24.20
2022-09-12T09:47:03.656Z,24.21
2022-09-12T09:49:31.458Z,24.22
2022-09-12T09:52:00.699Z,24.21
2022-09-12T09:54:38.075Z,24.22
2022-09-12T09:57:05.332Z,24.21
2022-09-12T09:59:33.718Z,24.22
2022-09-12T10:02:03.789Z,24.22
2022-09-12T10:04:31.779Z,24.22
2022-09-12T10:07:02.419Z,24.23
2022-09-12T10:09:30.426Z,24.23
2022-09-12T10:11:57.637Z,24.22
2022-09-12T10:14:37.935Z,24.22
2022-09-12T10:17:24.096Z,24.22
2022-09-12T10:20:10.666Z,24.22
2022-09-12T10:22:38.640Z,24.21
2022-09-12T10:25:05.943Z,24.22
2022-09-12T10:27:33.086Z,24.22
2022-09-12T10:30:07.272Z,24.22
2022-09-12T10:32:41.460Z,24.23
2022-09-12T10:35:15.803Z,24.21
2022-09-12T10:37:52.295Z,24.22
2022-09-12T10:40:26.393Z,24.23
2022-09-12T10:42:54.265Z,24.22
2022-09-12T10:45:26.364Z,24.23
2022-09-12T10:47:53.790Z,24.23
2022-09-12T10:50:23.957Z,24.23
2022-09-12T10:52:51.159Z,24.22
2022-09-12T10:55:18.940Z,24.23
2022-09-12T10:58:00.041Z,24.22
2022-09-12T11:00:30.594Z,24.23
2022-09-12T11:02:58.862Z,24.22
2022-09-12T11:05:41.271Z,24.23
2022-09-12T11:08:08.600Z,24.23
2022-09-12T11:10:44.637Z,24.23
2022-09-12T11:13:17.819Z,24.23
2022-09-12T11:15:45.941Z,24.22
2022-09-12T11:18:25.225Z,24.22
2022-09-12T11:21:02.105Z,24.23
2022-09-12T11:23:42.353Z,24.23
2022-09-12T11:26:19.277Z,24.22
2022-09-12T11:28:47.388Z,24.24
2022-09-12T11:31:22.587Z,24.22
2022-09-12T11:33:56.526Z,24.22
2022-09-12T11:36:45.686Z,24.21
2022-09-12T11:39:13.392Z,24.22
2022-09-12T11:41:44.198Z,24.21
2022-09-12T11:44:14.145Z,24.22
2022-09-12T11:46:46.723Z,24.22
2022-09-12T11:49:22.393Z,24.21
2022-09-12T11:51:50.953Z,24.21
2022-09-12T11:54:23.326Z,24.22
2022-09-12T11:56:51.763Z,24.22
2022-09-12T11:59:45.179Z,24.23
2022-09-12T12:02:31.536Z,24.22
2022-09-12T12:04:58.608Z,24.23
2022-09-12T12:07:28.052Z,24.23
2022-09-12T12:09:55.712Z,24.22
2022-09-12T12:12:24.845Z,24.22
2022-09-12T12:14:52.308Z,24.22
2022-09-12T12:17:20.038Z,24.23
2022-09-12T12:19:47.691Z,24.23
2022-09-12T12:22:16.631Z,24.23
2022-09-12T12:25:08.224Z,24.22
2022-09-12T12:27:56.263Z,24.22
2022-09-12T12:30:43.635Z,24.22
2022-09-12T12:33:10.890Z,24.21
2022-09-12T12:35:40.108Z,24.22
2022-09-12T12:38:25.670Z,24.23
2022-09-12T12:40:52.814Z,24.22
2022-09-12T12:43:31.841Z,24.22
2022-09-12T12:45:59.837Z,24.22
2022-09-12T12:48:27.011Z,24.22
2022-09-12T12:50:54.175Z,24.23
2022-09-12T12:53:25.195Z,24.22
2022-09-12T12:55:52.789Z,24.22
2022-09-12T12:58:19.933Z,24.22
2022-09-12T13:00:47.227Z,24.22
2022-09-12T13:03:28.536Z,24.22
2022-09-12T13:05:59.643Z,24.22
2022-09-12T13:08:28.812Z,24.22
2022-09-12T13:11:07.719Z,24.23
2022-09-12T13:13:39.075Z,24.22
2022-09-12T13:16:06.368Z,24.23
2022-09-12T13:18:53.744Z,24.22
2022-09-12T13:21:21.602Z,24.23
2022-09-12T13:24:04.717Z,24.23
2022-09-12T13:26:35.620Z,24.23
2022-09-12T13:29:09.394Z,24.22
2022-09-12T13:31:37.062Z,24.22
2022-09-12T13:34:05.309Z,24.22
2022-09-12T13:36:44.838Z,24.23
2022-09-12T13:39:21.744Z,24.23
2022-09-12T13:41:54.920Z,24.23
2022-09-12T13:44:23.057Z,24.22
2022-09-12T13:46:51.153Z,24.22
2022-09-12T13:49:23.297Z,24.22
2022-09-12T13:52:00.392Z,24.22
2022-09-12T13:54:29.586Z,24.23
2022-09-12T13:56:56.964Z,24.23
2022-09-12T13:59:24.842Z,24.24
2022-09-12T14:01:52.283Z,24.23
2022-09-12T14:04:44.431Z,24.23
2022-09-12T14:07:15.450Z,24.24
2022-09-12T14:09:44.539Z,24.23
2022-09-12T14:12:34.910Z,24.24
2022-09-12T14:15:02.075Z,24.23
2022-09-12T14:17:34.767Z,24.24
2022-09-12T14:20:03.757Z,24.24
2022-09-12T14:22:31.006Z,24.24
2022-09-12T14:24:58.752Z,24.24
2022-09-12T14:27:37.334Z,24.23
2022-09-12T14:30:07.493Z,24.24
2022-09-12T14:32:35.066Z,24.25
2022-09-12T14:35:05.213Z,24.24
2022-09-12T14:37:34.914Z,24.24
2022-09-12T14:40:02.744Z,24.24
2022-09-12T14:42:30.420Z,24.25
2022-09-12T14:44:58.494Z,24.25
2022-09-12T14:47:26.200Z,24.25
2022-09-12T14:49:53.342Z,24.25
2022-09-12T14:52:24.887Z,24.26
2022-09-12T14:54:59.103Z,24.26
2022-09-12T14:57:28.955Z,24.25
2022-09-12T15:00:05.398Z,24.25
2022-09-12T15:02:33.970Z,24.26
2022-09-12T15:05:04.073Z,24.26
2022-09-12T15:07:31.152Z,24.26
2022-09-12T15:10:15.526Z,24.26
2022-09-12T15:12:42.664Z,24.26
2022-09-12T15:15:18.045Z,24.26
2022-09-12T15:17:45.151Z,24.26
2022-09-12T15:20:14.997Z,24.25
2022-09-12T15:22:42.085Z,24.26
2022-09-12T15:25:09.787Z,24.25
2022-09-12T15:27:40.809Z,24.26
2022-09-12T15:30:08.631Z,24.26
2022-09-12T15:32:35.884Z,24.26
2022-09-12T15:35:03.022Z,24.24
2022-09-12T15:37:31.079Z,24.25
2022-09-12T15:39:58.248Z,24.26
2022-09-12T15:42:27.362Z,24.27
2022-09-12T15:44:54.569Z,24.26
2022-09-12T15:47:23.090Z,24.26
2022-09-12T15:49:50.624Z,24.26
2022-09-12T15:52:17.747Z,24.26
2022-09-12T15:54:44.840Z,24.26
2022-09-12T15:57:11.963Z,24.26
2022-09-12T15:59:39.031Z,24.26
2022-09-12T16:02:06.232Z,24.26
2022-09-12T16:04:33.353Z,24.26
2022-09-12T16:07:00.486Z,24.25
2022-09-12T16:09:27.675Z,24.26
2022-09-12T16:11:55.011Z,24.26
2022-09-12T16:14:22.131Z,24.26
2022-09-12T16:16:53.363Z,24.25
2022-09-12T16:19:20.688Z,24.26
2022-09-12T16:21:47.847Z,24.25
2022-09-12T16:24:15.088Z,24.27
2022-09-12T16:26:42.554Z,24.26
2022-09-12T16:29:10.606Z,24.27
2022-09-12T16:31:40.324Z,24.26
2022-09-12T16:34:07.595Z,24.27
2022-09-12T16:36:34.770Z,24.26
2022-09-12T16:39:01.894Z,24.26
2022-09-12T16:41:29.098Z,24.25
2022-09-12T16:43:56.438Z,24.26
2022-09-12T16:46:24.667Z,24.26
2022-09-12T16:48:53.027Z,24.26
2022-09-12T16:51:21.297Z,24.26
2022-09-12T16:53:48.398Z,24.26
2022-09-12T16:56:15.578Z,24.26
2022-09-12T16:58:52.467Z,24.26
2022-09-12T17:01:23.708Z,24.26
2022-09-12T17:03:54.390Z,24.25
2022-09-12T17:06:22.786Z,24.26
2022-09-12T17:08:50.327Z,24.26
2022-09-12T17:11:23.037Z,24.25
2022-09-12T17:14:11.758Z,24.25
2022-09-12T17:16:39.942Z,24.25
2022-09-12T17:19:07.128Z,24.26
2022-09-12T17:21:34.355Z,24.27
2022-09-12T17:24:01.514Z,24.26
2022-09-12T17:26:28.660Z,24.26
2022-09-12T17:28:55.810Z,24.25
2022-09-12T17:31:23.095Z,24.26
2022-09-12T17:33:50.862Z,24.25
2022-09-12T17:36:18.198Z,24.25
2022-09-12T17:38:45.759Z,24.25
2022-09-12T17:41:17.601Z,24.25
2022-09-12T17:43:49.039Z,24.25
2022-09-12T17:46:19.317Z,24.25
2022-09-12T17:48:52.821Z,24.25
2022-09-12T17:51:20.098Z,24.24
2022-09-12T17:53:47.530Z,24.24
2022-09-12T17:56:15.616Z,24.25
2022-09-12T17:58:42.764Z,24.24
2022-09-12T18:01:29.948Z,24.24
2022-09-12T18:03:57.325Z,24.23
2022-09-12T18:06:24.516Z,24.24
2022-09-12T18:08:51.590Z,24.24
2022-09-12T18:11:18.695Z,24.24
2022-09-12T18:13:45.935Z,24.23
2022-09-12T18:16:13.314Z,24.23
2022-09-12T18:18:40.452Z,24.22
2022-09-12T18:21:08.407Z,24.21
2022-09-12T18:23:38.295Z,24.21
2022-09-12T18:26:06.256Z,24.21
2022-09-12T18:28:33.962Z,24.21
2022-09-12T18:31:01.922Z,24.20
2022-09-12T18:33:32.141Z,24.19
2022-09-12T18:36:03.696Z,24.19
2022-09-12T18:38:31.105Z,24.19
2022-09-12T18:41:03.990Z,24.20
2022-09-12T18:43:31.220Z,24.19
2022-09-12T18:46:03.157Z,24.19
2022-09-12T18:48:31.519Z,24.20
2022-09-12T18:51:05.672Z,24.21
2022-09-12T18:53:33.327Z,24.18
2022-09-12T18:56:01.307Z,24.18
2022-09-12T18:58:28.590Z,24.18
2022-09-12T19:00:55.845Z,24.19
2022-09-12T19:03:23.081Z,24.17
2022-09-12T19:05:50.277Z,24.18
2022-09-12T19:08:17.554Z,24.18
2022-09-12T19:10:44.731Z,24.19
2022-09-12T19:13:11.825Z,24.18
2022-09-12T19:15:39.636Z,24.17
2022-09-12T19:18:06.851Z,24.18
2022-09-12T19:20:35.325Z,24.18
2022-09-12T19:23:02.596Z,24.17
2022-09-12T19:25:30.113Z,24.17
2022-09-12T19:27:57.229Z,24.17
2022-09-12T19:30:24.335Z,24.17
2022-09-12T19:32:51.446Z,24.17
2022-09-12T19:35:18.515Z,24.16
2022-09-12T19:37:45.635Z,24.16
2022-09-12T19:40:12.768Z,24.17
2022-09-12T19:42:39.873Z,24.15
2022-09-12T19:45:07.025Z,24.16
2022-09-12T19:47:34.104Z,24.15
2022-09-12T19:50:01.228Z,24.16
2022-09-12T19:52:28.297Z,24.15
2022-09-12T19:54:55.538Z,24.15
2022-09-12T19:57:23.520Z,24.14
2022-09-12T19:59:50.661Z,24.16
2022-09-12T20:02:17.959Z,24.16
2022-09-12T20:04:45.449Z,24.14
2022-09-12T20:07:12.680Z,24.15
2022-09-12T20:09:39.883Z,24.15
2022-09-12T20:12:06.991Z,24.15
2022-09-12T20:14:34.214Z,24.15
2022-09-12T20:17:01.869Z,24.16
2022-09-12T20:19:28.992Z,24.14
2022-09-12T20:21:56.095Z,24.14
2022-09-12T20:24:23.190Z,24.15
2022-09-12T20:26:50.343Z,24.13
2022-09-12T20:29:17.494Z,24.14
2022-09-12T20:31:44.684Z,24.14
2022-09-12T20:34:15.130Z,24.15
2022-09-12T20:36:42.261Z,24.15
2022-09-12T20:39:12.986Z,24.14
2022-09-12T20:41:40.057Z,24.14
2022-09-12T20:44:07.184Z,24.15
2022-09-12T20:46:34.301Z,24.15
2022-09-12T20:49:01.483Z,24.15
2022-09-12T20:51:30.253Z,24.15
2022-09-12T20:53:57.846Z,24.15
2022-09-12T20:56:26.625Z,24.14
2022-09-12T20:58:54.181Z,24.15
2022-09-12T21:01:21.369Z,24.15
2022-09-12T21:03:48.613Z,24.15
2022-09-12T21:06:18.555Z,24.15
2022-09-12T21:08:46.085Z,24.14
2022-09-12T21:11:13.442Z,24.16
2022-09-12T21:13:40.559Z,24.15
2022-09-12T21:16:11.555Z,24.15
2022-09-12T21:18:38.886Z,24.14
2022-09-12T21:21:06.035Z,24.15
2022-09-12T21:23:33.549Z,24.16
2022-09-12T21:26:00.605Z,24.15
2022-09-12T21:28:27.776Z,24.14
2022-09-12T21:30:57.466Z,24.16
2022-09-12T21:33:24.944Z,24.15
2022-09-12T21:35:52.102Z,24.15
2022-09-12T21:38:19.204Z,24.15
2022-09-12T21:40:46.569Z,24.15
2022-09-12T21:43:13.961Z,24.15
2022-09-12T21:45:41.060Z,24.15
2022-09-12T21:48:08.141Z,24.15
2022-09-12T21:50:35.254Z,24.15
2022-09-12T21:53:02.428Z,24.16
2022-09-12T21:55:29.677Z,24.15
2022-09-12T21:57:59.090Z,24.16
2022-09-12T22:00:26.521Z,24.17
2022-09-12T22:02:53.789Z,24.17
2022-09-12T22:05:22.286Z,24.17
2022-09-12T22:07:49.406Z,24.17
2022-09-12T22:10:16.574Z,24.16
2022-09-12T22:12:46.116Z,24.18
2022-09-12T22:15:38.999Z,24.16
2022-09-12T22:18:00.608Z,24.15
2022-09-12T22:20:27.785Z,24.14
2022-09-12T22:23:13.566Z,24.13
2022-09-12T22:25:40.715Z,24.12
2022-09-12T22:28:11.604Z,24.13
2022-09-12T22:30:38.757Z,24.14
2022-09-12T22:33:08.456Z,24.15
2022-09-12T22:35:36.228Z,24.16
2022-09-12T22:38:03.637Z,24.16
2022-09-12T22:40:30.758Z,24.14
2022-09-12T22:42:57.833Z,24.14
2022-09-12T22:45:24.976Z,24.13
2022-09-12T22:47:52.092Z,24.14
2022-09-12T22:50:19.184Z,24.13
2022-09-12T22:52:46.691Z,24.12
2022-09-12T22:55:13.769Z,24.13
2022-09-12T22:57:41.526Z,24.12
2022-09-12T23:00:10.638Z,24.12
2022-09-12T23:02:38.141Z,24.14
2022-09-12T23:05:05.897Z,24.13
2022-09-12T23:07:33.527Z,24.12
2022-09-12T23:10:00.686Z,24.13
2022-09-12T23:12:27.860Z,24.14
2022-09-12T23:14:55.064Z,24.14
2022-09-12T23:17:22.296Z,24.14
2022-09-12T23:19:49.367Z,24.12
2022-09-12T23:22:16.484Z,24.11
2022-09-12T23:24:43.632Z,24.12
2022-09-12T23:27:10.751Z,24.15
2022-09-12T23:29:37.868Z,24.13
2022-09-12T23:32:05.035Z,24.14
2022-09-12T23:34:33.566Z,24.13
2022-09-12T23:37:00.647Z,24.11
2022-09-12T23:39:27.730Z,24.10
2022-09-12T23:41:55.030Z,24.10
2022-09-12T23:44:22.134Z,24.11
2022-09-12T23:46:49.208Z,24.11
2022-09-12T23:49:18.720Z,24.11
2022-09-12T23:52:04.358Z,24.12
2022-09-12T23:54:31.556Z,24.13
2022-09-12T23:56:58.725Z,24.12
2022-09-12T23:59:25.786Z,24.13
